Time;durP1;ratioP1;P1;durP2;ratioP2;P2;SDS_P1;SDS_P2;PMS_P1;PMS_P2;Temp;Humidity;BMP_temperature;BMP_pressure;BME280_temperature;BME280_humidity;BME280_pressure;Samples;Min_cycle;Max_cycle;Signal;HPM_P1;HPM_P2
2022/02/05 00:01:18;;;;;;;13.75;6.55;;;4.00;99.90;;;4.62;100.00;100412.56;5061445;28;20036;-79
2022/02/05 00:03:48;;;;;;;11.80;6.50;;;4.00;99.90;;;4.66;100.00;100410.78;5060938;28;20036;-78
2022/02/05 00:06:22;;;;;;;11.38;6.00;;;4.10;99.90;;;4.70;100.00;100411.78;5038278;28;20030;-77
2022/02/05 00:09:01;;;;;;;14.88;5.88;;;4.10;99.90;;;4.69;100.00;100418.44;5016108;28;20030;-77
2022/02/05 00:38:25;;;;;;;12.05;6.60;;;3.70;99.90;;;4.26;100.00;100445.22;5074189;28;20043;-79
2022/02/05 00:40:59;;;;;;;14.45;5.82;;;3.70;99.90;;;4.20;100.00;100443.75;5075741;28;20437;-78
2022/02/05 00:43:27;;;;;;;12.52;5.07;;;3.70;99.90;;;4.22;100.00;100458.06;5068113;28;20039;-79
2022/02/05 00:45:55;;;;;;;11.90;5.60;;;3.60;99.90;;;4.12;100.00;100458.34;5071641;28;20077;-78
2022/02/05 00:48:22;;;;;;;8.30;4.90;;;3.60;99.90;;;4.12;100.00;100463.88;5073089;28;20020;-78
2022/02/05 00:50:58;;;;;;;11.18;6.50;;;3.60;99.90;;;4.12;100.00;100461.09;5073440;28;20111;-80
2022/02/05 00:55:57;;;;;;;13.02;5.10;;;3.60;99.90;;;4.10;100.00;100463.38;5073013;28;20333;-79
2022/02/05 00:58:23;;;;;;;11.15;4.68;;;3.50;99.90;;;4.03;100.00;100463.84;5072067;28;20103;-80
2022/02/05 01:00:49;;;;;;;6.75;4.65;;;3.50;99.90;;;3.96;100.00;100468.19;5080312;28;20052;-81
2022/02/05 01:03:15;;;;;;;16.00;5.80;;;3.50;99.90;;;3.97;100.00;100476.19;5090840;28;20032;-80
2022/02/05 01:05:42;;;;;;;10.80;6.18;;;3.50;99.90;;;3.96;100.00;100479.25;5091282;28;20040;-79
2022/02/05 01:08:09;;;;;;;12.57;5.68;;;3.40;99.90;;;3.94;100.00;100484.28;5076911;28;20025;-77
2022/02/05 01:10:35;;;;;;;15.27;5.72;;;3.40;99.90;;;3.93;100.00;100479.88;5076064;28;20056;-79
2022/02/05 01:13:10;;;;;;;10.93;6.15;;;3.40;99.90;;;3.96;100.00;100487.53;5074896;28;20033;-79
2022/02/05 01:15:55;;;;;;;15.23;6.80;;;3.40;99.90;;;3.95;100.00;100491.44;5076224;28;20059;-79
2022/02/05 01:18:23;;;;;;;10.80;6.00;;;3.40;99.90;;;4.03;100.00;100498.94;5058171;28;20032;-77
2022/02/05 01:23:25;;;;;;;12.20;6.05;;;3.60;99.90;;;4.20;100.00;100504.56;5075296;28;20036;-78
2022/02/05 01:26:01;;;;;;;10.60;5.68;;;3.60;99.90;;;4.24;100.00;100508.28;5076205;28;20029;-79
2022/02/05 01:28:31;;;;;;;12.40;5.88;;;3.70;99.90;;;4.29;100.00;100510.94;5075590;28;20031;-78
2022/02/05 01:30:58;;;;;;;11.98;5.60;;;3.70;99.90;;;4.21;100.00;100509.75;5076601;28;20025;-77
2022/02/05 01:33:48;;;;;;;8.23;4.65;;;3.70;99.90;;;4.30;100.00;100511.75;5086913;28;20029;-81
2022/02/05 02:21:59;;;;;;;7.25;4.30;;;3.30;99.90;;;3.85;100.00;100558.03;5074279;28;20169;-78
2022/02/05 02:27:16;;;;;;;9.25;4.38;;;3.20;99.90;;;3.61;100.00;100566.63;5061089;28;20036;-78
2022/02/05 02:32:18;;;;;;;11.52;5.43;;;3.10;99.90;;;3.56;100.00;100570.31;5053435;28;20035;-78
2022/02/05 02:34:51;;;;;;;12.15;4.55;;;3.00;99.90;;;3.49;100.00;100569.13;5053448;28;20025;-79
2022/02/05 02:37:28;;;;;;;14.63;4.63;;;3.00;99.90;;;3.53;100.00;100576.47;5053891;28;20028;-80
2022/02/05 02:42:26;;;;;;;10.75;3.97;;;3.00;99.90;;;3.56;100.00;100575.84;5053105;28;20032;-80
2022/02/05 02:44:55;;;;;;;13.05;4.22;;;3.00;99.90;;;3.52;100.00;100579.56;5053477;28;20036;-79
2022/02/05 02:47:22;;;;;;;10.43;3.88;;;3.00;99.90;;;3.49;100.00;100582.94;5053505;28;20035;-79
2022/02/05 02:50:03;;;;;;;10.32;4.55;;;2.90;99.90;;;3.44;100.00;100575.59;5053627;28;20044;-79
2022/02/05 02:58:02;;;;;;;12.98;4.88;;;2.90;99.90;;;3.39;100.00;100575.72;5053291;28;20090;-79
2022/02/05 03:00:28;;;;;;;12.43;5.18;;;2.80;99.90;;;3.39;100.00;100578.47;5053361;28;20082;-80
2022/02/05 03:02:54;;;;;;;8.43;4.88;;;2.90;99.90;;;3.41;100.00;100580.91;5034988;28;20484;-79
2022/02/05 03:05:22;;;;;;;9.88;4.40;;;2.80;99.90;;;3.36;100.00;100581.88;5052663;28;20029;-79
2022/02/05 03:07:51;;;;;;;10.38;4.35;;;2.90;99.90;;;3.34;100.00;100584.09;5052643;28;20021;-79
2022/02/05 03:10:17;;;;;;;11.05;4.63;;;2.80;99.90;;;3.40;100.00;100595.88;5053189;28;20033;-80
2022/02/05 03:12:46;;;;;;;14.82;5.20;;;2.80;99.90;;;3.39;100.00;100585.94;5053139;28;20048;-79
2022/02/05 03:15:18;;;;;;;16.98;5.28;;;2.80;99.90;;;3.40;100.00;100593.09;5034985;28;20025;-80
2022/02/05 03:18:04;;;;;;;10.65;4.10;;;2.80;99.90;;;3.41;100.00;100594.72;5052587;28;20033;-79
2022/02/05 03:20:31;;;;;;;7.75;4.55;;;2.80;99.90;;;3.39;100.00;100599.75;5052646;28;20052;-79
2022/02/05 03:23:02;;;;;;;11.27;4.35;;;2.90;99.90;;;3.48;100.00;100603.41;5052219;28;20029;-77
2022/02/05 03:25:32;;;;;;;12.35;4.10;;;2.90;99.90;;;3.41;100.00;100600.25;5052781;28;20041;-78
2022/02/05 03:28:02;;;;;;;14.93;4.38;;;2.90;99.90;;;3.38;100.00;100598.94;5072157;28;20024;-79
2022/02/05 03:30:29;;;;;;;13.35;4.13;;;2.80;99.90;;;3.40;100.00;100607.72;5072080;28;20024;-79
2022/02/05 03:32:57;;;;;;;10.07;4.63;;;2.90;99.90;;;3.55;100.00;100612.06;5054300;28;20029;-79
2022/02/05 03:35:23;;;;;;;10.27;4.95;;;2.90;99.90;;;3.60;100.00;100618.28;5054337;28;20020;-78
2022/02/05 03:37:49;;;;;;;15.10;5.00;;;3.00;99.90;;;3.59;100.00;100626.91;5054078;28;20024;-79
2022/02/05 03:40:15;;;;;;;7.82;4.30;;;3.00;99.90;;;3.63;100.00;100617.66;5073245;28;20025;-81
2022/02/05 03:42:41;;;;;;;15.00;4.40;;;3.10;99.90;;;3.64;100.00;100630.34;5073162;28;20020;-79
2022/02/05 03:45:12;;;;;;;13.82;4.32;;;3.10;99.90;;;3.67;100.00;100620.59;5073027;28;20094;-78
2022/02/05 03:47:42;;;;;;;9.98;4.38;;;3.10;99.90;;;3.63;100.00;100619.59;5071348;28;20099;-79
2022/02/05 03:50:09;;;;;;;20.77;5.05;;;3.10;99.90;;;3.64;100.00;100616.53;5072916;28;20431;-79
2022/02/05 03:52:39;;;;;;;13.85;4.05;;;3.10;99.90;;;3.63;100.00;100625.13;5072571;28;20087;-80
2022/02/05 03:55:07;;;;;;;10.10;3.95;;;3.00;99.90;;;3.56;100.00;100622.78;5071231;28;20056;-79
2022/02/05 03:57:34;;;;;;;14.98;4.22;;;3.00;99.90;;;3.59;100.00;100635.19;5071408;28;20063;-77
2022/02/05 04:00:03;;;;;;;7.25;4.45;;;3.10;99.90;;;3.54;100.00;100636.09;5072804;28;20021;-78
2022/02/05 04:02:32;;;;;;;14.10;3.90;;;3.00;99.90;;;3.60;100.00;100645.91;5072652;28;20475;-79
2022/02/05 04:04:58;;;;;;;10.25;4.68;;;3.00;99.90;;;3.57;100.00;100646.53;5072518;28;20042;-77
2022/02/05 04:07:26;;;;;;;11.73;4.57;;;3.10;99.90;;;3.64;100.00;100649.69;5072930;28;20033;-79
2022/02/05 04:10:02;;;;;;;17.50;4.50;;;3.10;99.90;;;3.73;100.00;100653.31;5071828;28;20029;-79
2022/02/05 04:17:57;;;;;;;8.48;3.60;;;3.20;99.90;;;3.85;100.00;100660.25;5054709;28;20102;-78
2022/02/05 04:20:23;;;;;;;11.18;3.88;;;3.30;99.90;;;3.86;100.00;100653.56;5054304;28;20439;-79
2022/02/05 04:22:49;;;;;;;13.65;3.92;;;3.30;99.90;;;3.88;100.00;100665.16;5054088;28;20484;-78
2022/02/05 04:25:16;;;;;;;12.90;3.85;;;3.30;99.90;;;3.90;100.00;100665.63;5054146;28;20081;-78
2022/02/05 04:27:42;;;;;;;9.27;3.65;;;3.40;99.90;;;3.94;100.00;100664.72;5073088;28;20028;-78
2022/02/05 04:30:09;;;;;;;10.90;3.40;;;3.40;99.90;;;3.95;100.00;100674.63;5074487;28;20028;-78
2022/02/05 04:32:35;;;;;;;12.43;3.90;;;3.40;99.90;;;3.86;100.00;100670.16;5073686;28;20025;-78
2022/02/05 04:35:01;;;;;;;16.63;3.95;;;3.30;99.90;;;3.83;100.00;100670.78;5073556;28;20086;-79
2022/02/05 04:37:28;;;;;;;12.80;3.85;;;3.20;99.90;;;3.84;100.00;100677.94;5074437;28;20029;-79
2022/02/05 04:56:46;;;;;;;10.25;3.85;;;3.40;99.90;;;4.06;100.00;100692.59;5080229;28;20557;-79
2022/02/05 05:04:33;;;;;;;13.32;3.45;;;3.50;99.90;;;4.13;100.00;100694.94;5077180;28;20032;-76
2022/02/05 05:09:39;;;;;;;12.10;3.83;;;3.60;99.90;;;4.17;100.00;100702.25;5079102;28;20085;-79
2022/02/05 05:12:31;;;;;;;10.82;3.17;;;3.50;99.90;;;4.15;100.00;100712.00;5077428;28;20036;-78
2022/02/05 05:20:29;;;;;;;16.08;4.05;;;3.70;99.90;;;4.28;100.00;100718.59;5081032;28;20062;-78
2022/02/05 05:22:55;;;;;;;19.85;4.05;;;3.70;99.90;;;4.27;100.00;100726.06;5078542;28;20029;-77
2022/02/05 05:25:22;;;;;;;11.32;3.33;;;3.70;99.90;;;4.28;100.00;100736.00;5075563;28;20442;-78
2022/02/05 05:27:53;;;;;;;11.77;3.53;;;3.70;99.90;;;4.33;100.00;100721.25;5056761;28;20032;-78
2022/02/05 05:30:19;;;;;;;11.25;4.18;;;3.70;99.90;;;4.34;100.00;100737.50;5039251;28;20071;-78
2022/02/05 05:32:45;;;;;;;8.98;3.35;;;3.70;99.90;;;4.32;100.00;100745.31;5038842;28;20379;-78
2022/02/05 05:35:11;;;;;;;12.27;3.33;;;3.70;99.90;;;4.30;100.00;100733.78;5057829;28;20388;-78
2022/02/05 05:37:37;;;;;;;12.95;3.67;;;3.70;99.90;;;4.30;100.00;100736.53;5056214;28;20068;-77
2022/02/05 05:40:04;;;;;;;13.13;3.90;;;3.60;99.90;;;4.16;100.00;100742.13;5056909;28;20158;-78
2022/02/05 05:42:37;;;;;;;12.18;4.35;;;3.60;99.90;;;4.22;100.00;100737.25;5055242;28;20033;-78
2022/02/05 05:48:05;;;;;;;15.88;3.65;;;3.60;99.90;;;4.33;100.00;100746.97;5056311;28;20040;-78
2022/02/05 05:50:58;;;;;;;11.57;3.70;;;3.60;99.90;;;4.31;100.00;100754.72;5056222;28;20067;-77
2022/02/05 05:53:17;;;;;;;13.57;3.95;;;3.60;99.90;;;4.27;100.00;100758.47;5055620;28;20507;-77
2022/02/05 05:55:46;;;;;;;17.13;4.40;;;3.60;99.90;;;4.32;100.00;100764.66;5058135;28;20025;-79
2022/02/05 05:58:18;;;;;;;12.05;3.25;;;3.60;99.90;;;4.38;100.00;100770.88;5039761;28;20021;-77
2022/02/05 06:00:48;;;;;;;10.07;3.88;;;3.70;99.90;;;4.32;100.00;100772.16;5039339;28;20357;-78
2022/02/05 06:03:14;;;;;;;11.35;3.30;;;3.70;99.90;;;4.42;100.00;100777.44;5038462;28;20032;-77
2022/02/05 06:05:40;;;;;;;12.65;3.38;;;3.70;99.90;;;4.36;100.00;100773.97;5057087;28;20025;-77
2022/02/05 06:08:10;;;;;;;7.53;2.90;;;3.70;99.90;;;4.36;100.00;100784.22;5038633;28;20039;-77
2022/02/05 06:10:36;;;;;;;12.38;4.13;;;3.70;99.90;;;4.32;100.00;100789.56;5041660;28;20032;-77
2022/02/05 06:13:02;;;;;;;11.80;3.95;;;3.70;99.90;;;4.34;100.00;100784.53;5073015;28;20068;-76
2022/02/05 06:15:28;;;;;;;12.20;3.28;;;3.70;99.90;;;4.36;100.00;100789.75;5049352;28;20113;-78
2022/02/05 06:17:54;;;;;;;12.48;3.45;;;3.70;99.90;;;4.24;100.00;100779.22;5056845;28;20104;-78
2022/02/05 06:20:20;;;;;;;9.00;3.60;;;3.70;99.90;;;4.27;100.00;100788.88;5055712;28;20036;-80
2022/02/05 06:22:46;;;;;;;9.98;3.70;;;3.70;99.90;;;4.28;100.00;100794.06;5038645;28;20033;-79
2022/02/05 06:25:21;;;;;;;7.18;3.35;;;3.70;99.90;;;4.20;100.00;100789.31;5056717;28;20123;-80
2022/02/05 06:27:50;;;;;;;9.23;3.25;;;3.60;99.90;;;4.13;100.00;100788.91;5057713;28;20033;-78
2022/02/05 06:30:16;;;;;;;13.43;3.78;;;3.60;99.90;;;4.09;100.00;100791.47;5058045;28;20119;-79
2022/02/05 06:32:42;;;;;;;19.65;4.82;;;3.50;99.90;;;4.03;100.00;100800.19;5057490;28;20461;-77
2022/02/05 06:35:11;;;;;;;11.25;3.72;;;3.40;99.90;;;4.04;100.00;100799.91;5058433;28;20130;-78
2022/02/05 06:37:37;;;;;;;11.13;3.65;;;3.40;99.90;;;4.04;100.00;100799.06;5059303;28;20032;-79
2022/02/05 06:40:06;;;;;;;12.23;3.75;;;3.40;99.90;;;4.00;100.00;100789.75;5057776;28;20028;-77
2022/02/05 06:42:32;;;;;;;11.48;3.72;;;3.40;99.90;;;4.00;100.00;100798.06;5074979;28;20028;-76
2022/02/05 06:44:58;;;;;;;9.98;3.88;;;3.40;99.90;;;3.85;100.00;100790.09;5076296;28;20497;-77
2022/02/05 06:47:24;;;;;;;15.55;4.35;;;3.40;99.90;;;3.91;100.00;100799.91;5057832;28;20109;-80
2022/02/05 06:49:50;;;;;;;14.38;3.85;;;3.40;99.90;;;3.94;100.00;100802.06;5074895;28;20051;-78
2022/02/05 06:52:16;;;;;;;10.48;3.95;;;3.30;99.90;;;3.91;100.00;100810.97;5074903;28;20503;-77
2022/02/05 06:54:42;;;;;;;14.52;4.40;;;3.20;99.90;;;3.78;100.00;100804.34;5075027;28;20448;-79
2022/02/05 06:57:16;;;;;;;10.27;3.45;;;3.20;99.90;;;3.75;100.00;100806.91;5057612;28;20024;-78
2022/02/05 06:59:48;;;;;;;11.07;3.80;;;3.20;99.90;;;3.76;100.00;100812.09;5057390;28;20564;-78
2022/02/05 07:02:14;;;;;;;13.10;4.53;;;3.20;99.90;;;3.71;100.00;100815.00;5073387;28;20411;-78
2022/02/05 07:04:41;;;;;;;10.13;4.05;;;3.20;99.90;;;3.71;100.00;100821.34;5057655;28;20035;-78
2022/02/05 07:07:07;;;;;;;14.35;4.07;;;3.20;99.90;;;3.70;100.00;100829.91;5076368;28;20539;-76
2022/02/05 07:09:33;;;;;;;9.68;3.85;;;3.10;99.90;;;3.66;100.00;100815.91;5075367;28;20056;-78
2022/02/05 07:12:10;;;;;;;13.35;4.60;;;3.10;99.90;;;3.66;100.00;100828.91;5073469;28;20031;-77
2022/02/05 07:14:57;;;;;;;9.13;3.78;;;3.10;99.90;;;3.76;100.00;100831.44;5072362;28;20480;-77
2022/02/05 07:17:34;;;;;;;8.68;4.05;;;3.20;99.90;;;3.83;100.00;100828.25;5073473;28;20024;-76
2022/02/05 07:22:36;;;;;;;13.55;4.95;;;3.30;99.90;;;3.91;100.00;100827.56;5075293;28;20541;-77
2022/02/05 07:30:21;;;;;;;20.08;4.45;;;3.40;99.90;;;4.06;100.00;100836.31;5055767;28;20036;-77
2022/02/05 07:32:47;;;;;;;12.73;4.30;;;3.40;99.90;;;4.08;100.00;100833.22;5057038;28;20428;-78
2022/02/05 07:35:13;;;;;;;13.82;5.53;;;3.50;99.90;;;4.03;100.00;100831.41;5056196;28;20074;-78
2022/02/05 07:37:38;;;;;;;14.25;4.18;;;3.40;99.90;;;4.10;100.00;100836.53;5054843;28;20373;-78
2022/02/05 07:40:05;;;;;;;14.63;4.70;;;3.50;99.90;;;4.15;100.00;100842.75;5054832;28;20112;-79
2022/02/05 07:42:31;;;;;;;9.88;4.30;;;3.50;99.90;;;4.22;100.00;100856.97;5054777;28;20039;-77
2022/02/05 07:45:00;;;;;;;10.70;4.13;;;3.60;99.90;;;4.20;100.00;100858.41;5037914;28;20028;-78
2022/02/05 07:47:32;;;;;;;11.93;4.22;;;3.60;99.90;;;4.16;100.00;100858.22;5055426;28;20033;-79
2022/02/05 07:49:58;;;;;;;20.27;4.88;;;3.60;99.90;;;4.21;100.00;100862.78;5056971;28;20029;-76
2022/02/05 07:52:25;;;;;;;6.97;4.05;;;3.60;99.90;;;4.24;100.00;100862.16;5038803;28;20052;-77
2022/02/05 07:54:51;;;;;;;15.57;4.75;;;3.60;99.90;;;4.21;100.00;100862.78;5053897;28;20477;-76
2022/02/05 07:57:20;;;;;;;11.43;4.13;;;3.60;99.90;;;4.39;100.00;100866.56;5055164;28;20181;-78
2022/02/05 07:59:49;;;;;;;12.70;4.28;;;3.70;99.90;;;4.38;100.00;100870.44;5037783;28;20024;-78
2022/02/05 08:02:14;;;;;;;13.70;3.92;;;3.70;99.90;;;4.32;100.00;100861.44;5059025;28;20043;-77
2022/02/05 08:04:41;;;;;;;9.68;3.55;;;3.70;99.90;;;4.41;100.00;100867.88;5037510;28;20028;-77
2022/02/05 08:07:08;;;;;;;10.98;4.00;;;3.70;99.90;;;4.30;100.00;100871.19;5037898;28;20491;-77
2022/02/05 08:09:51;;;;;;;11.40;4.30;;;3.70;99.90;;;4.34;100.00;100878.53;5038171;28;20036;-78
2022/02/05 08:12:18;;;;;;;9.27;3.90;;;3.70;99.90;;;4.37;100.00;100882.63;5042221;28;20025;-78
2022/02/05 08:14:48;;;;;;;16.67;3.95;;;3.70;99.90;;;4.35;100.00;100879.38;5057922;28;20025;-78
2022/02/05 08:17:22;;;;;;;12.38;4.50;;;3.80;99.90;;;4.55;100.00;100879.72;5058248;28;20029;-78
2022/02/05 08:19:48;;;;;;;12.38;4.00;;;3.90;99.90;;;4.64;100.00;100888.91;5057322;28;20441;-78
2022/02/05 08:22:19;;;;;;;13.55;3.85;;;4.10;99.90;;;5.05;100.00;100897.03;5059265;28;20039;-78
2022/02/05 08:24:49;;;;;;;8.73;3.70;;;4.30;99.90;;;5.25;100.00;100890.97;5053043;28;20029;-78
2022/02/05 08:27:16;;;;;;;12.77;3.50;;;4.50;99.90;;;5.47;100.00;100898.44;5053947;28;20071;-76
2022/02/05 08:29:53;;;;;;;12.73;4.03;;;4.70;99.90;;;5.48;100.00;100900.06;5070557;28;20034;-77
2022/02/05 08:32:22;;;;;;;13.02;3.50;;;4.70;99.90;;;5.75;100.00;100910.94;5049421;28;20480;-78
2022/02/05 08:34:48;;;;;;;11.10;3.72;;;5.00;99.90;;;5.54;99.60;100909.88;5045124;28;20033;-78
2022/02/05 08:37:15;;;;;;;8.88;3.35;;;4.90;99.90;;;5.46;100.00;100918.94;5063412;28;20549;-77
2022/02/05 08:39:45;;;;;;;12.80;3.88;;;4.80;99.90;;;5.88;99.46;100919.50;5061126;28;20029;-78
2022/02/05 08:42:14;;;;;;;8.88;3.22;;;5.10;99.90;;;6.07;98.26;100929.19;5063632;28;20062;-78
2022/02/05 08:44:40;;;;;;;10.13;3.65;;;5.20;99.90;;;5.88;97.73;100927.81;5061024;28;20479;-79
2022/02/05 08:47:12;;;;;;;10.45;4.80;;;5.20;99.90;;;5.77;99.19;100925.31;5058866;28;20175;-78
2022/02/05 08:49:38;;;;;;;9.90;3.40;;;5.10;99.90;;;5.97;98.44;100921.19;5041858;28;20033;-78
2022/02/05 08:52:08;;;;;;;11.00;4.15;;;5.20;99.90;;;5.82;98.05;100921.56;5064300;28;20037;-78
2022/02/05 08:54:40;;;;;;;12.13;4.00;;;5.20;99.90;;;5.87;98.48;100915.94;5045153;28;20447;-79
2022/02/05 08:57:12;;;;;;;10.25;4.05;;;5.10;99.90;;;5.79;98.89;100922.22;5057210;28;20053;-79
2022/02/05 09:02:23;;;;;;;15.35;4.15;;;4.90;99.90;;;5.59;100.00;100920.00;5058249;28;20033;-77
2022/02/05 09:07:34;;;;;;;16.73;3.45;;;4.70;99.90;;;5.37;100.00;100917.25;5054470;28;20373;-78
2022/02/05 09:10:53;;;;;;;14.68;3.92;;;4.70;99.90;;;5.41;100.00;100908.00;5037487;28;20035;-78
2022/02/05 09:13:09;;;;;;;10.82;3.53;;;4.70;99.90;;;5.35;100.00;100905.69;5040708;28;20380;-77
2022/02/05 09:15:33;;;;;;;15.88;4.32;;;4.70;99.90;;;5.42;100.00;100911.59;5055837;28;20580;-76
2022/02/05 09:18:03;;;;;;;12.15;3.97;;;4.70;99.90;;;5.51;100.00;100907.75;5055081;28;20029;-77
2022/02/05 09:20:32;;;;;;;13.50;3.97;;;4.80;99.90;;;5.74;100.00;100917.66;5056949;28;20033;-77
2022/02/05 09:22:58;;;;;;;13.20;3.78;;;4.90;99.90;;;5.82;100.00;100910.47;5056817;28;20095;-79
2022/02/05 09:25:26;;;;;;;11.43;4.13;;;5.10;99.90;;;5.95;99.86;100909.59;5044520;28;20161;-79
2022/02/05 09:27:52;;;;;;;13.07;3.88;;;5.20;99.90;;;6.40;98.83;100910.19;5083963;28;20035;-77
2022/02/05 09:30:30;;;;;;;10.38;4.10;;;5.60;99.90;;;6.88;96.30;100912.84;5082848;28;20025;-77
2022/02/05 09:32:59;;;;;;;15.90;3.83;;;5.90;99.90;;;7.25;93.57;100905.78;5081933;28;20149;-77
2022/02/05 09:35:28;;;;;;;10.85;4.13;;;6.30;99.90;;;7.21;92.01;100918.69;5079182;28;20024;-77
2022/02/05 09:37:54;;;;;;;9.50;4.18;;;6.30;99.90;;;7.17;91.45;100918.53;5081669;28;20040;-77
2022/02/05 09:40:23;;;;;;;14.57;3.72;;;6.40;99.90;;;7.33;90.59;100921.63;5086246;28;20024;-76
2022/02/05 09:42:50;;;;;;;8.50;3.80;;;6.40;99.90;;;7.31;91.03;100927.50;5088873;28;20047;-77
2022/02/05 09:45:21;;;;;;;15.63;3.97;;;6.60;99.90;;;7.44;90.46;100928.47;5067004;28;20032;-78
2022/02/05 09:47:47;;;;;;;12.07;4.18;;;6.60;99.90;;;7.55;89.36;100921.41;5084877;28;20071;-78
2022/02/05 09:50:13;;;;;;;14.70;4.72;;;6.70;99.90;;;7.69;89.52;100929.53;5065092;28;20444;-78
2022/02/05 09:52:40;;;;;;;8.82;3.90;;;6.70;99.90;;;7.85;87.10;100933.41;5064913;28;20054;-78
2022/02/05 09:55:09;;;;;;;12.75;4.57;;;7.00;99.90;;;7.55;89.03;100931.69;5064327;28;20026;-78
2022/02/05 09:57:35;;;;;;;12.88;5.25;;;7.00;99.90;;;7.53;89.62;100926.47;5060715;28;20029;-77
2022/02/05 10:00:03;;;;;;;12.50;3.75;;;6.90;99.90;;;8.12;89.10;100932.16;5058306;28;20376;-77
2022/02/05 10:02:36;;;;;;;13.77;4.70;;;7.10;99.90;;;7.78;87.95;100933.91;5078363;28;20027;-77
2022/02/05 10:05:17;;;;;;;10.95;4.15;;;6.90;99.90;;;7.61;88.42;100944.28;5080142;28;20058;-76
2022/02/05 10:08:08;;;;;;;16.50;4.60;;;6.90;99.90;;;7.33;90.30;100939.09;5061383;28;20032;-77
2022/02/05 10:10:46;;;;;;;14.27;6.15;;;6.60;99.90;;;7.34;90.98;100945.47;5078259;28;20028;-78
2022/02/05 10:13:18;;;;;;;9.25;4.75;;;6.60;99.90;;;7.36;91.81;100949.56;5074957;22;20055;-77
2022/02/05 10:15:52;;;;;;;11.38;4.88;;;6.60;99.90;;;7.48;91.28;100948.09;5036700;28;20037;-74
2022/02/05 10:18:43;;;;;;;17.30;5.15;;;6.70;99.90;;;7.36;91.45;100948.72;5055492;28;20033;-74
2022/02/05 10:21:30;;;;;;;13.05;5.28;;;6.60;99.90;;;7.47;92.42;100932.53;5056037;28;20085;-75
2022/02/05 10:24:09;;;;;;;13.45;5.03;;;6.60;99.90;;;7.79;89.73;100952.25;5057621;28;20029;-76
2022/02/05 10:27:00;;;;;;;11.32;5.63;;;6.90;99.90;;;7.82;87.66;100946.03;5046385;28;20028;-76
2022/02/05 10:29:31;;;;;;;12.93;4.55;;;6.90;99.90;;;7.80;88.61;100959.41;5035319;28;20034;-76
2022/02/05 10:32:14;;;;;;;10.73;5.10;;;6.80;99.90;;;7.72;88.66;100959.44;5035099;28;20504;-77
2022/02/05 10:35:19;;;;;;;10.60;4.95;;;6.80;99.90;;;7.40;89.43;100956.09;5038509;28;20037;-77
2022/02/05 10:38:03;;;;;;;14.05;4.40;;;6.70;99.90;;;7.57;89.77;100957.22;5074410;28;20033;-77
2022/02/05 10:43:34;;;;;;;11.10;4.35;;;6.60;99.90;;;7.31;90.33;100944.19;5070232;28;20043;-77
2022/02/05 10:46:04;;;;;;;12.13;4.78;;;6.50;99.90;;;7.29;91.52;100942.84;5077664;28;20098;-78
2022/02/05 10:48:41;;;;;;;11.07;3.95;;;6.50;99.90;;;7.28;90.53;100944.03;5077450;28;20032;-77
2022/02/05 10:51:08;;;;;;;10.70;3.78;;;6.50;99.90;;;7.19;91.32;100934.88;5084432;28;20039;-76
2022/02/05 10:53:41;;;;;;;10.20;3.63;;;6.50;99.90;;;7.33;90.74;100932.72;5087039;28;20543;-78
2022/02/05 10:56:33;;;;;;;13.63;3.70;;;6.50;99.90;;;7.37;89.01;100923.41;5074999;28;20082;-77
2022/02/05 11:07:22;;;;;;;12.45;3.78;;;6.80;99.90;;;7.61;88.66;100931.19;5074503;28;20069;-76
2022/02/05 11:09:57;;;;;;;12.25;3.67;;;6.90;99.90;;;7.87;87.00;100931.91;5074512;28;20028;-76
2022/02/05 11:18:30;;;;;;;17.17;4.07;;;7.20;99.90;;;7.57;87.24;100924.69;5074638;28;20067;-77
2022/02/05 11:20:59;;;;;;;11.13;3.22;;;7.10;99.90;;;7.51;88.45;100934.34;5073933;28;20043;-76
2022/02/05 11:23:28;;;;;;;9.80;3.13;;;6.90;99.90;;;7.42;88.75;100930.75;5072184;28;20096;-77
2022/02/05 11:25:59;;;;;;;10.38;3.15;;;6.80;99.90;;;7.33;89.74;100921.63;5065630;28;20070;-76
2022/02/05 11:28:54;;;;;;;13.75;3.33;;;6.70;99.90;;;7.31;88.28;100926.69;5062288;28;20527;-77
2022/02/05 11:31:42;;;;;;;9.63;3.10;;;6.60;99.90;;;7.46;88.56;100923.38;5053317;28;20052;-77
2022/02/05 11:34:25;;;;;;;13.35;3.67;;;6.60;99.90;;;7.18;89.43;100924.91;5052591;28;20032;-76
2022/02/05 11:37:10;;;;;;;10.27;2.83;;;6.50;99.90;;;7.08;90.95;100905.81;5051155;28;20052;-77
2022/02/05 11:39:55;;;;;;;9.43;3.40;;;6.30;99.90;;;7.11;90.83;100911.53;5057458;28;20017;-77
2022/02/05 11:42:36;;;;;;;10.50;3.70;;;6.30;99.90;;;7.19;90.33;100899.56;5051051;28;20036;-76
2022/02/05 11:45:24;;;;;;;8.40;3.35;;;6.40;99.90;;;7.37;87.59;100887.28;5060806;28;20088;-76
2022/02/05 11:47:54;;;;;;;10.80;2.95;;;6.70;99.90;;;8.08;85.58;100892.22;5070584;28;20056;-76
2022/02/05 11:50:26;;;;;;;14.02;2.95;;;7.10;99.90;;;8.96;82.14;100901.28;5069346;28;20047;-77
2022/02/05 11:52:58;;;;;;;10.65;3.25;;;7.80;99.90;;;9.25;79.38;100901.16;5073832;28;20028;-77
2022/02/05 11:55:27;;;;;;;8.93;2.80;;;8.30;99.90;;;9.70;78.06;100903.97;5073847;28;20028;-77
2022/02/05 11:58:08;;;;;;;7.15;2.85;;;8.80;99.90;;;9.67;76.84;100898.25;5072489;28;20402;-76
2022/02/05 12:00:55;;;;;;;9.30;2.55;;;8.90;99.90;;;9.93;75.64;100902.38;5054853;28;20028;-76
2022/02/05 12:03:36;;;;;;;12.68;3.13;;;9.10;99.90;;;9.33;75.73;100903.06;5054570;28;20040;-77
2022/02/05 12:06:10;;;;;;;7.43;2.78;;;8.80;99.90;;;8.92;77.91;100908.72;5074481;28;20138;-76
2022/02/05 12:08:42;;;;;;;8.38;2.92;;;8.50;99.90;;;8.40;78.74;100920.25;5073190;28;20024;-78
2022/02/05 12:11:35;;;;;;;8.00;2.60;;;8.00;99.90;;;8.17;80.54;100901.34;5072908;28;20029;-78
2022/02/05 12:14:16;;;;;;;9.73;2.10;;;7.60;99.90;;;8.05;80.95;100898.47;5072129;28;20029;-77
2022/02/05 12:17:27;;;;;;;6.38;3.25;;;7.40;99.90;;;8.15;80.95;100912.00;5072534;28;20028;-76
2022/02/05 12:20:20;;;;;;;8.77;2.60;;;7.50;99.90;;;8.02;78.19;100902.75;4990712;28;20038;-75
2022/02/05 12:26:07;;;;;;;9.27;2.00;;;7.40;99.90;;;8.10;79.14;100887.97;5069092;28;20505;-76
2022/02/05 12:28:40;;;;;;;9.40;2.15;;;7.40;99.90;;;8.01;78.67;100883.59;5043828;28;20075;-77
2022/02/05 12:31:17;;;;;;;5.32;1.92;;;7.40;99.90;;;7.83;79.27;100899.56;5052486;28;20079;-76
2022/02/05 12:33:55;;;;;;;8.75;1.90;;;7.20;99.90;;;7.69;79.80;100885.06;5050673;28;20496;-78
2022/02/05 12:36:46;;;;;;;8.55;2.17;;;7.10;99.90;;;7.57;80.75;100880.19;5053675;28;20071;-77
2022/02/05 12:39:31;;;;;;;8.18;2.10;;;7.00;99.90;;;7.45;80.59;100884.81;5053334;28;20025;-77
2022/02/05 12:42:01;;;;;;;7.97;2.03;;;6.90;99.90;;;7.58;81.31;100879.03;5034731;28;20551;-77
2022/02/05 12:44:32;;;;;;;5.80;2.40;;;6.90;99.90;;;7.87;80.82;100876.28;5052631;28;20116;-76
2022/02/05 12:47:10;;;;;;;10.18;2.22;;;7.00;99.90;;;7.70;80.04;100881.13;5052353;28;20029;-79
2022/02/05 12:52:06;;;;;;;12.20;2.63;;;6.90;99.90;;;7.52;82.01;100873.97;5051258;28;20040;-76
2022/02/05 12:54:35;;;;;;;11.20;2.35;;;6.90;99.90;;;7.62;81.95;100874.44;5033462;28;20388;-77
2022/02/05 12:57:02;;;;;;;7.25;2.38;;;7.00;99.90;;;7.85;81.20;100869.44;5051348;28;20029;-76
2022/02/05 12:59:38;;;;;;;7.03;2.35;;;7.10;99.90;;;8.27;80.29;100875.91;5052727;28;20033;-76
2022/02/05 13:02:08;;;;;;;8.30;2.33;;;7.40;99.90;;;8.59;78.92;100869.66;5055799;28;20036;-76
2022/02/05 13:04:55;;;;;;;8.88;2.38;;;7.70;99.90;;;9.02;78.14;100870.09;5053893;28;20036;-76
2022/02/05 13:07:25;;;;;;;9.40;2.75;;;8.10;99.90;;;9.25;76.07;100870.50;5055822;28;20491;-76
2022/02/05 13:10:21;;;;;;;8.88;2.22;;;8.40;99.90;;;9.47;75.18;100856.16;5055506;28;20025;-75
2022/02/05 13:12:51;;;;;;;14.93;2.88;;;8.70;99.90;;;9.23;73.02;100856.13;5053943;28;20040;-77
2022/02/05 13:15:26;;;;;;;6.07;1.75;;;8.50;99.90;;;8.84;75.60;100860.28;5053907;28;20079;-78
2022/02/05 13:26:42;;;;;;;8.30;2.53;;;8.10;99.90;;;8.72;75.45;100846.28;5060631;28;20047;-77
2022/02/05 13:34:40;;;;;;;11.05;2.47;;;7.60;99.90;;;8.30;77.60;100839.09;5074857;28;20053;-78
2022/02/05 13:37:21;;;;;;;9.50;2.10;;;7.60;99.90;;;8.26;77.08;100852.00;5074845;28;20438;-78